sensor_id;sensor_type;location;lat;lon;timestamp;P1;durP1;ratioP1;P2;durP2;ratioP2
14599;SDS011;7386;45.586;12.854;2023-03-23T00:02:04;64.27;;;46.70;;
14599;SDS011;7386;45.586;12.854;2023-03-23T00:04:31;68.97;;;46.40;;
14599;SDS011;7386;45.586;12.854;2023-03-23T00:07:00;71.63;;;48.30;;
14599;SDS011;7386;45.586;12.854;2023-03-23T00:09:28;71.87;;;49.00;;
14599;SDS011;7386;45.586;12.854;2023-03-23T00:11:59;70.97;;;47.47;;
14599;SDS011;7386;45.586;12.854;2023-03-23T00:14:31;69.83;;;47.50;;
14599;SDS011;7386;45.586;12.854;2023-03-23T00:17:06;71.83;;;48.50;;
14599;SDS011;7386;45.586;12.854;2023-03-23T00:19:35;72.10;;;49.07;;
14599;SDS011;7386;45.586;12.854;2023-03-23T00:22:12;73.67;;;49.93;;
14599;SDS011;7386;45.586;12.854;2023-03-23T00:24:39;71.63;;;48.77;;
14599;SDS011;7386;45.586;12.854;2023-03-23T00:27:07;74.37;;;49.73;;
14599;SDS011;7386;45.586;12.854;2023-03-23T00:29:37;75.13;;;50.87;;
14599;SDS011;7386;45.586;12.854;2023-03-23T00:32:06;80.30;;;51.87;;
14599;SDS011;7386;45.586;12.854;2023-03-23T00:34:37;83.13;;;52.20;;
14599;SDS011;7386;45.586;12.854;2023-03-23T00:37:05;80.80;;;52.70;;
14599;SDS011;7386;45.586;12.854;2023-03-23T00:39:34;76.80;;;51.00;;
14599;SDS011;7386;45.586;12.854;2023-03-23T00:42:03;76.27;;;50.53;;
14599;SDS011;7386;45.586;12.854;2023-03-23T00:44:31;80.73;;;53.37;;
14599;SDS011;7386;45.586;12.854;2023-03-23T00:47:00;82.57;;;52.20;;
14599;SDS011;7386;45.586;12.854;2023-03-23T00:49:28;85.27;;;55.50;;
14599;SDS011;7386;45.586;12.854;2023-03-23T00:51:56;89.80;;;57.27;;
14599;SDS011;7386;45.586;12.854;2023-03-23T00:54:24;94.37;;;57.67;;
14599;SDS011;7386;45.586;12.854;2023-03-23T00:56:53;91.37;;;56.17;;
14599;SDS011;7386;45.586;12.854;2023-03-23T00:59:21;89.60;;;55.37;;
14599;SDS011;7386;45.586;12.854;2023-03-23T01:01:49;87.63;;;55.60;;
14599;SDS011;7386;45.586;12.854;2023-03-23T01:04:16;90.77;;;56.27;;
14599;SDS011;7386;45.586;12.854;2023-03-23T01:06:47;86.20;;;56.93;;
14599;SDS011;7386;45.586;12.854;2023-03-23T01:09:15;90.33;;;56.57;;
14599;SDS011;7386;45.586;12.854;2023-03-23T01:11:44;93.97;;;56.40;;
14599;SDS011;7386;45.586;12.854;2023-03-23T01:14:14;93.80;;;57.50;;
14599;SDS011;7386;45.586;12.854;2023-03-23T01:16:42;94.93;;;57.03;;
14599;SDS011;7386;45.586;12.854;2023-03-23T01:19:09;99.30;;;58.83;;
14599;SDS011;7386;45.586;12.854;2023-03-23T01:21:37;96.77;;;59.17;;
14599;SDS011;7386;45.586;12.854;2023-03-23T01:24:04;97.30;;;59.33;;
14599;SDS011;7386;45.586;12.854;2023-03-23T01:26:32;101.23;;;60.10;;
14599;SDS011;7386;45.586;12.854;2023-03-23T01:28:59;100.17;;;61.07;;
14599;SDS011;7386;45.586;12.854;2023-03-23T01:31:28;97.17;;;59.83;;
14599;SDS011;7386;45.586;12.854;2023-03-23T01:33:55;98.33;;;58.97;;
14599;SDS011;7386;45.586;12.854;2023-03-23T01:36:23;96.80;;;60.00;;
14599;SDS011;7386;45.586;12.854;2023-03-23T01:38:51;98.80;;;59.90;;
14599;SDS011;7386;45.586;12.854;2023-03-23T01:41:20;95.20;;;59.53;;
14599;SDS011;7386;45.586;12.854;2023-03-23T01:43:54;95.30;;;59.10;;
14599;SDS011;7386;45.586;12.854;2023-03-23T01:46:23;99.23;;;60.80;;
14599;SDS011;7386;45.586;12.854;2023-03-23T01:48:51;99.70;;;61.13;;
14599;SDS011;7386;45.586;12.854;2023-03-23T01:51:19;97.13;;;60.43;;
14599;SDS011;7386;45.586;12.854;2023-03-23T01:53:48;103.37;;;60.60;;
14599;SDS011;7386;45.586;12.854;2023-03-23T01:56:18;101.83;;;60.77;;
14599;SDS011;7386;45.586;12.854;2023-03-23T01:58:50;100.40;;;61.77;;
14599;SDS011;7386;45.586;12.854;2023-03-23T02:01:18;106.07;;;62.00;;
14599;SDS011;7386;45.586;12.854;2023-03-23T02:03:47;103.67;;;62.30;;
14599;SDS011;7386;45.586;12.854;2023-03-23T02:06:16;106.80;;;63.47;;
14599;SDS011;7386;45.586;12.854;2023-03-23T02:08:43;117.67;;;67.17;;
14599;SDS011;7386;45.586;12.854;2023-03-23T02:11:12;106.17;;;63.53;;
14599;SDS011;7386;45.586;12.854;2023-03-23T02:13:40;109.97;;;66.00;;
14599;SDS011;7386;45.586;12.854;2023-03-23T02:16:08;112.43;;;66.53;;
14599;SDS011;7386;45.586;12.854;2023-03-23T02:18:40;104.63;;;63.20;;
14599;SDS011;7386;45.586;12.854;2023-03-23T02:21:14;107.10;;;65.20;;
14599;SDS011;7386;45.586;12.854;2023-03-23T02:23:58;105.93;;;63.63;;
14599;SDS011;7386;45.586;12.854;2023-03-23T02:26:38;97.83;;;59.97;;
14599;SDS011;7386;45.586;12.854;2023-03-23T02:32:04;101.33;;;61.77;;
14599;SDS011;7386;45.586;12.854;2023-03-23T02:34:36;106.13;;;63.67;;
14599;SDS011;7386;45.586;12.854;2023-03-23T02:37:07;108.87;;;63.47;;
14599;SDS011;7386;45.586;12.854;2023-03-23T02:39:36;104.30;;;63.90;;
14599;SDS011;7386;45.586;12.854;2023-03-23T02:42:05;101.57;;;60.50;;
14599;SDS011;7386;45.586;12.854;2023-03-23T02:44:34;107.83;;;64.00;;
14599;SDS011;7386;45.586;12.854;2023-03-23T02:47:02;98.87;;;61.50;;
14599;SDS011;7386;45.586;12.854;2023-03-23T02:49:31;98.80;;;60.93;;
14599;SDS011;7386;45.586;12.854;2023-03-23T02:52:02;99.30;;;61.20;;
14599;SDS011;7386;45.586;12.854;2023-03-23T02:54:31;102.57;;;61.33;;
14599;SDS011;7386;45.586;12.854;2023-03-23T02:56:59;105.37;;;63.33;;
14599;SDS011;7386;45.586;12.854;2023-03-23T02:59:27;99.27;;;60.33;;
14599;SDS011;7386;45.586;12.854;2023-03-23T03:02:07;105.37;;;63.83;;
14599;SDS011;7386;45.586;12.854;2023-03-23T03:04:37;103.80;;;63.33;;
14599;SDS011;7386;45.586;12.854;2023-03-23T03:07:14;107.17;;;64.10;;
14599;SDS011;7386;45.586;12.854;2023-03-23T03:09:44;106.10;;;64.43;;
14599;SDS011;7386;45.586;12.854;2023-03-23T03:12:16;107.13;;;63.93;;
14599;SDS011;7386;45.586;12.854;2023-03-23T03:14:48;112.17;;;65.57;;
14599;SDS011;7386;45.586;12.854;2023-03-23T03:17:19;111.03;;;65.03;;
14599;SDS011;7386;45.586;12.854;2023-03-23T03:19:48;109.90;;;66.80;;
14599;SDS011;7386;45.586;12.854;2023-03-23T03:22:18;107.60;;;64.70;;
14599;SDS011;7386;45.586;12.854;2023-03-23T03:24:47;103.20;;;63.10;;
14599;SDS011;7386;45.586;12.854;2023-03-23T03:27:15;106.00;;;62.40;;
14599;SDS011;7386;45.586;12.854;2023-03-23T03:29:44;105.13;;;63.40;;
14599;SDS011;7386;45.586;12.854;2023-03-23T03:32:16;105.33;;;62.27;;
14599;SDS011;7386;45.586;12.854;2023-03-23T03:34:44;102.73;;;61.83;;
14599;SDS011;7386;45.586;12.854;2023-03-23T03:37:12;108.00;;;64.80;;
14599;SDS011;7386;45.586;12.854;2023-03-23T03:39:42;105.73;;;63.20;;
14599;SDS011;7386;45.586;12.854;2023-03-23T03:42:09;103.53;;;62.17;;
14599;SDS011;7386;45.586;12.854;2023-03-23T03:44:36;102.73;;;62.30;;
14599;SDS011;7386;45.586;12.854;2023-03-23T03:47:04;102.97;;;61.87;;
14599;SDS011;7386;45.586;12.854;2023-03-23T03:49:31;98.20;;;57.23;;
14599;SDS011;7386;45.586;12.854;2023-03-23T03:51:58;88.67;;;54.67;;
14599;SDS011;7386;45.586;12.854;2023-03-23T03:54:26;74.40;;;49.13;;
14599;SDS011;7386;45.586;12.854;2023-03-23T03:56:55;67.40;;;44.57;;
14599;SDS011;7386;45.586;12.854;2023-03-23T03:59:23;60.57;;;41.60;;
14599;SDS011;7386;45.586;12.854;2023-03-23T04:01:52;56.40;;;38.63;;
14599;SDS011;7386;45.586;12.854;2023-03-23T04:04:19;51.20;;;37.07;;
14599;SDS011;7386;45.586;12.854;2023-03-23T04:06:48;49.97;;;35.33;;
14599;SDS011;7386;45.586;12.854;2023-03-23T04:09:15;45.83;;;34.27;;
14599;SDS011;7386;45.586;12.854;2023-03-23T04:11:44;45.07;;;34.07;;
14599;SDS011;7386;45.586;12.854;2023-03-23T04:14:13;42.60;;;32.77;;
14599;SDS011;7386;45.586;12.854;2023-03-23T04:16:40;42.63;;;32.13;;
14599;SDS011;7386;45.586;12.854;2023-03-23T04:19:08;41.50;;;32.13;;
14599;SDS011;7386;45.586;12.854;2023-03-23T04:21:37;41.63;;;32.37;;
14599;SDS011;7386;45.586;12.854;2023-03-23T04:24:05;40.93;;;32.43;;
14599;SDS011;7386;45.586;12.854;2023-03-23T04:26:33;43.03;;;32.13;;
14599;SDS011;7386;45.586;12.854;2023-03-23T04:29:00;40.57;;;32.00;;
14599;SDS011;7386;45.586;12.854;2023-03-23T04:31:30;41.43;;;31.83;;
14599;SDS011;7386;45.586;12.854;2023-03-23T04:33:57;43.53;;;33.27;;
14599;SDS011;7386;45.586;12.854;2023-03-23T04:36:25;41.47;;;31.90;;
14599;SDS011;7386;45.586;12.854;2023-03-23T04:38:53;39.43;;;30.07;;
14599;SDS011;7386;45.586;12.854;2023-03-23T04:41:21;41.83;;;32.13;;
14599;SDS011;7386;45.586;12.854;2023-03-23T04:43:49;40.67;;;31.57;;
14599;SDS011;7386;45.586;12.854;2023-03-23T04:46:18;41.27;;;32.40;;
14599;SDS011;7386;45.586;12.854;2023-03-23T04:48:47;42.77;;;32.70;;
14599;SDS011;7386;45.586;12.854;2023-03-23T04:51:15;43.83;;;33.07;;
14599;SDS011;7386;45.586;12.854;2023-03-23T04:53:42;42.00;;;32.33;;
14599;SDS011;7386;45.586;12.854;2023-03-23T04:56:09;41.33;;;31.67;;
14599;SDS011;7386;45.586;12.854;2023-03-23T04:58:39;39.37;;;31.97;;
14599;SDS011;7386;45.586;12.854;2023-03-23T05:01:06;43.87;;;34.53;;
14599;SDS011;7386;45.586;12.854;2023-03-23T05:03:33;45.37;;;34.07;;
14599;SDS011;7386;45.586;12.854;2023-03-23T05:06:02;43.83;;;33.73;;
14599;SDS011;7386;45.586;12.854;2023-03-23T05:08:30;43.67;;;34.50;;
14599;SDS011;7386;45.586;12.854;2023-03-23T05:10:58;42.17;;;33.23;;
14599;SDS011;7386;45.586;12.854;2023-03-23T05:13:27;41.07;;;33.80;;
14599;SDS011;7386;45.586;12.854;2023-03-23T05:15:54;40.87;;;32.27;;
14599;SDS011;7386;45.586;12.854;2023-03-23T05:18:22;40.30;;;32.13;;
14599;SDS011;7386;45.586;12.854;2023-03-23T05:20:49;42.77;;;32.23;;
14599;SDS011;7386;45.586;12.854;2023-03-23T05:23:19;42.03;;;33.27;;
14599;SDS011;7386;45.586;12.854;2023-03-23T05:25:52;39.57;;;31.87;;
14599;SDS011;7386;45.586;12.854;2023-03-23T05:28:20;43.87;;;34.93;;
14599;SDS011;7386;45.586;12.854;2023-03-23T05:30:48;50.23;;;38.83;;
14599;SDS011;7386;45.586;12.854;2023-03-23T05:33:15;52.07;;;39.47;;
14599;SDS011;7386;45.586;12.854;2023-03-23T05:35:43;58.43;;;42.73;;
14599;SDS011;7386;45.586;12.854;2023-03-23T05:38:13;63.50;;;45.13;;
14599;SDS011;7386;45.586;12.854;2023-03-23T05:40:42;60.53;;;43.77;;
14599;SDS011;7386;45.586;12.854;2023-03-23T05:43:11;65.90;;;46.20;;
14599;SDS011;7386;45.586;12.854;2023-03-23T05:45:38;65.90;;;46.13;;
14599;SDS011;7386;45.586;12.854;2023-03-23T05:48:06;68.53;;;49.37;;
14599;SDS011;7386;45.586;12.854;2023-03-23T05:50:34;65.70;;;47.80;;
14599;SDS011;7386;45.586;12.854;2023-03-23T05:53:01;70.90;;;50.17;;
14599;SDS011;7386;45.586;12.854;2023-03-23T05:55:29;72.67;;;51.00;;
14599;SDS011;7386;45.586;12.854;2023-03-23T05:57:58;74.90;;;53.13;;
14599;SDS011;7386;45.586;12.854;2023-03-23T06:00:25;69.60;;;51.27;;
14599;SDS011;7386;45.586;12.854;2023-03-23T06:02:55;73.23;;;52.03;;
14599;SDS011;7386;45.586;12.854;2023-03-23T06:05:23;77.33;;;54.57;;
14599;SDS011;7386;45.586;12.854;2023-03-23T06:07:51;80.40;;;55.20;;
14599;SDS011;7386;45.586;12.854;2023-03-23T06:10:19;78.50;;;54.53;;
14599;SDS011;7386;45.586;12.854;2023-03-23T06:12:46;82.63;;;57.03;;
14599;SDS011;7386;45.586;12.854;2023-03-23T06:15:15;77.73;;;56.00;;
14599;SDS011;7386;45.586;12.854;2023-03-23T06:17:43;79.63;;;54.53;;
14599;SDS011;7386;45.586;12.854;2023-03-23T06:20:10;80.47;;;56.77;;
14599;SDS011;7386;45.586;12.854;2023-03-23T06:22:38;85.57;;;59.30;;
14599;SDS011;7386;45.586;12.854;2023-03-23T06:25:07;83.13;;;58.67;;
14599;SDS011;7386;45.586;12.854;2023-03-23T06:27:34;80.43;;;56.67;;
14599;SDS011;7386;45.586;12.854;2023-03-23T06:30:02;84.00;;;58.67;;
14599;SDS011;7386;45.586;12.854;2023-03-23T06:32:31;82.87;;;57.30;;
14599;SDS011;7386;45.586;12.854;2023-03-23T06:34:59;82.80;;;57.33;;
14599;SDS011;7386;45.586;12.854;2023-03-23T06:37:26;83.17;;;57.37;;
14599;SDS011;7386;45.586;12.854;2023-03-23T06:39:54;81.70;;;57.57;;
14599;SDS011;7386;45.586;12.854;2023-03-23T06:42:21;78.90;;;56.13;;
14599;SDS011;7386;45.586;12.854;2023-03-23T06:44:50;74.17;;;54.93;;
14599;SDS011;7386;45.586;12.854;2023-03-23T06:47:18;79.43;;;54.90;;
14599;SDS011;7386;45.586;12.854;2023-03-23T06:49:47;75.03;;;53.20;;
14599;SDS011;7386;45.586;12.854;2023-03-23T06:52:14;76.07;;;54.37;;
14599;SDS011;7386;45.586;12.854;2023-03-23T06:54:42;78.73;;;56.07;;
14599;SDS011;7386;45.586;12.854;2023-03-23T06:57:10;75.40;;;54.30;;
14599;SDS011;7386;45.586;12.854;2023-03-23T06:59:37;76.37;;;55.10;;
14599;SDS011;7386;45.586;12.854;2023-03-23T07:02:05;74.03;;;55.10;;
14599;SDS011;7386;45.586;12.854;2023-03-23T07:04:32;78.30;;;56.87;;
14599;SDS011;7386;45.586;12.854;2023-03-23T07:07:02;77.30;;;56.77;;
14599;SDS011;7386;45.586;12.854;2023-03-23T07:09:29;75.33;;;54.57;;
14599;SDS011;7386;45.586;12.854;2023-03-23T07:11:57;74.37;;;55.87;;
14599;SDS011;7386;45.586;12.854;2023-03-23T07:14:24;73.87;;;54.60;;
14599;SDS011;7386;45.586;12.854;2023-03-23T07:16:52;75.47;;;56.73;;
14599;SDS011;7386;45.586;12.854;2023-03-23T07:19:19;72.93;;;53.93;;
14599;SDS011;7386;45.586;12.854;2023-03-23T07:21:46;77.23;;;56.77;;
14599;SDS011;7386;45.586;12.854;2023-03-23T07:24:15;73.13;;;53.70;;
14599;SDS011;7386;45.586;12.854;2023-03-23T07:26:44;73.37;;;52.97;;
14599;SDS011;7386;45.586;12.854;2023-03-23T07:29:11;70.93;;;52.80;;
14599;SDS011;7386;45.586;12.854;2023-03-23T07:31:39;58.10;;;42.67;;
14599;SDS011;7386;45.586;12.854;2023-03-23T07:34:06;42.37;;;31.30;;
14599;SDS011;7386;45.586;12.854;2023-03-23T07:36:33;34.73;;;25.53;;
14599;SDS011;7386;45.586;12.854;2023-03-23T07:39:02;29.47;;;20.90;;
14599;SDS011;7386;45.586;12.854;2023-03-23T07:41:33;28.87;;;21.40;;
14599;SDS011;7386;45.586;12.854;2023-03-23T07:44:00;55.20;;;39.10;;
14599;SDS011;7386;45.586;12.854;2023-03-23T07:46:28;91.77;;;62.10;;
14599;SDS011;7386;45.586;12.854;2023-03-23T07:48:55;82.83;;;55.00;;
14599;SDS011;7386;45.586;12.854;2023-03-23T07:51:22;76.90;;;52.27;;
14599;SDS011;7386;45.586;12.854;2023-03-23T07:53:50;101.90;;;67.03;;
14599;SDS011;7386;45.586;12.854;2023-03-23T07:56:17;69.77;;;50.57;;
14599;SDS011;7386;45.586;12.854;2023-03-23T07:58:47;80.07;;;54.07;;
14599;SDS011;7386;45.586;12.854;2023-03-23T08:01:14;76.43;;;53.87;;
14599;SDS011;7386;45.586;12.854;2023-03-23T08:03:42;59.97;;;43.57;;
14599;SDS011;7386;45.586;12.854;2023-03-23T08:06:09;87.37;;;60.70;;
14599;SDS011;7386;45.586;12.854;2023-03-23T08:08:37;75.07;;;51.73;;
14599;SDS011;7386;45.586;12.854;2023-03-23T08:11:05;78.37;;;53.33;;
14599;SDS011;7386;45.586;12.854;2023-03-23T08:13:32;81.10;;;55.67;;
14599;SDS011;7386;45.586;12.854;2023-03-23T08:16:02;61.13;;;44.27;;
14599;SDS011;7386;45.586;12.854;2023-03-23T08:18:29;74.60;;;52.00;;
14599;SDS011;7386;45.586;12.854;2023-03-23T08:20:59;64.90;;;44.53;;
14599;SDS011;7386;45.586;12.854;2023-03-23T08:23:27;59.43;;;41.57;;
14599;SDS011;7386;45.586;12.854;2023-03-23T08:25:54;75.27;;;52.80;;
14599;SDS011;7386;45.586;12.854;2023-03-23T08:28:22;55.87;;;41.50;;
14599;SDS011;7386;45.586;12.854;2023-03-23T08:30:49;64.50;;;45.33;;
14599;SDS011;7386;45.586;12.854;2023-03-23T08:33:18;54.50;;;41.47;;
14599;SDS011;7386;45.586;12.854;2023-03-23T08:35:53;43.83;;;32.83;;
14599;SDS011;7386;45.586;12.854;2023-03-23T08:38:21;66.33;;;46.00;;
14599;SDS011;7386;45.586;12.854;2023-03-23T08:40:49;47.33;;;35.33;;
14599;SDS011;7386;45.586;12.854;2023-03-23T08:43:17;48.40;;;36.20;;
14599;SDS011;7386;45.586;12.854;2023-03-23T08:45:44;53.60;;;39.63;;
14599;SDS011;7386;45.586;12.854;2023-03-23T08:48:13;34.43;;;26.43;;
14599;SDS011;7386;45.586;12.854;2023-03-23T08:50:41;53.00;;;37.57;;
14599;SDS011;7386;45.586;12.854;2023-03-23T08:53:09;49.10;;;38.23;;
14599;SDS011;7386;45.586;12.854;2023-03-23T08:55:36;44.90;;;33.77;;
14599;SDS011;7386;45.586;12.854;2023-03-23T08:58:05;60.30;;;44.37;;
14599;SDS011;7386;45.586;12.854;2023-03-23T09:00:32;46.87;;;35.10;;
14599;SDS011;7386;45.586;12.854;2023-03-23T09:02:59;44.63;;;33.53;;
14599;SDS011;7386;45.586;12.854;2023-03-23T09:05:28;55.13;;;41.97;;
14599;SDS011;7386;45.586;12.854;2023-03-23T09:07:57;47.17;;;34.67;;
14599;SDS011;7386;45.586;12.854;2023-03-23T09:10:25;43.27;;;33.00;;
14599;SDS011;7386;45.586;12.854;2023-03-23T09:12:53;42.53;;;32.07;;
14599;SDS011;7386;45.586;12.854;2023-03-23T09:15:21;34.90;;;26.13;;
14599;SDS011;7386;45.586;12.854;2023-03-23T09:17:49;43.27;;;33.13;;
14599;SDS011;7386;45.586;12.854;2023-03-23T09:20:17;48.17;;;37.73;;
14599;SDS011;7386;45.586;12.854;2023-03-23T09:22:46;48.50;;;35.37;;
14599;SDS011;7386;45.586;12.854;2023-03-23T09:25:16;35.97;;;28.03;;
14599;SDS011;7386;45.586;12.854;2023-03-23T09:27:48;46.13;;;36.27;;
14599;SDS011;7386;45.586;12.854;2023-03-23T09:30:18;47.67;;;36.63;;
14599;SDS011;7386;45.586;12.854;2023-03-23T09:32:45;38.00;;;29.03;;
14599;SDS011;7386;45.586;12.854;2023-03-23T09:35:13;36.87;;;28.70;;
14599;SDS011;7386;45.586;12.854;2023-03-23T09:37:42;46.97;;;35.90;;
14599;SDS011;7386;45.586;12.854;2023-03-23T09:40:11;36.43;;;28.17;;
14599;SDS011;7386;45.586;12.854;2023-03-23T09:43:02;34.93;;;25.30;;
14599;SDS011;7386;45.586;12.854;2023-03-23T09:45:33;43.53;;;33.70;;
14599;SDS011;7386;45.586;12.854;2023-03-23T09:48:07;38.43;;;29.20;;
14599;SDS011;7386;45.586;12.854;2023-03-23T09:50:38;29.43;;;22.70;;
14599;SDS011;7386;45.586;12.854;2023-03-23T09:53:08;39.53;;;29.20;;
14599;SDS011;7386;45.586;12.854;2023-03-23T09:55:37;41.60;;;31.40;;
14599;SDS011;7386;45.586;12.854;2023-03-23T09:58:09;27.63;;;21.63;;
14599;SDS011;7386;45.586;12.854;2023-03-23T10:00:39;31.93;;;25.33;;
14599;SDS011;7386;45.586;12.854;2023-03-23T10:03:10;39.43;;;28.87;;
14599;SDS011;7386;45.586;12.854;2023-03-23T10:05:41;26.53;;;21.67;;
14599;SDS011;7386;45.586;12.854;2023-03-23T10:08:10;32.23;;;24.93;;
14599;SDS011;7386;45.586;12.854;2023-03-23T10:10:45;38.00;;;30.03;;
14599;SDS011;7386;45.586;12.854;2023-03-23T10:13:17;31.63;;;24.30;;
14599;SDS011;7386;45.586;12.854;2023-03-23T10:15:45;31.93;;;25.47;;
14599;SDS011;7386;45.586;12.854;2023-03-23T10:18:15;40.17;;;30.17;;
14599;SDS011;7386;45.586;12.854;2023-03-23T10:20:46;30.70;;;23.80;;
14599;SDS011;7386;45.586;12.854;2023-03-23T10:23:24;27.97;;;22.40;;
14599;SDS011;7386;45.586;12.854;2023-03-23T10:26:02;34.47;;;26.43;;
14599;SDS011;7386;45.586;12.854;2023-03-23T10:28:37;27.70;;;23.23;;
14599;SDS011;7386;45.586;12.854;2023-03-23T10:31:04;31.45;;;24.58;;
14599;SDS011;7386;45.586;12.854;2023-03-23T10:33:36;37.57;;;29.37;;
14599;SDS011;7386;45.586;12.854;2023-03-23T10:36:06;31.17;;;23.13;;
14599;SDS011;7386;45.586;12.854;2023-03-23T10:38:34;33.67;;;22.30;;
14599;SDS011;7386;45.586;12.854;2023-03-23T10:41:04;41.97;;;30.80;;
14599;SDS011;7386;45.586;12.854;2023-03-23T10:43:35;33.28;;;24.77;;
14599;SDS011;7386;45.586;12.854;2023-03-23T10:46:05;34.30;;;26.23;;
14599;SDS011;7386;45.586;12.854;2023-03-23T10:48:33;41.80;;;32.50;;
14599;SDS011;7386;45.586;12.854;2023-03-23T10:51:04;32.33;;;23.83;;
14599;SDS011;7386;45.586;12.854;2023-03-23T10:53:34;26.67;;;21.93;;
14599;SDS011;7386;45.586;12.854;2023-03-23T10:56:02;37.17;;;29.07;;
14599;SDS011;7386;45.586;12.854;2023-03-23T10:58:31;30.87;;;23.40;;
14599;SDS011;7386;45.586;12.854;2023-03-23T11:01:00;27.83;;;22.15;;
14599;SDS011;7386;45.586;12.854;2023-03-23T11:03:38;39.17;;;31.00;;
14599;SDS011;7386;45.586;12.854;2023-03-23T11:06:06;31.97;;;24.10;;
14599;SDS011;7386;45.586;12.854;2023-03-23T11:08:35;28.65;;;22.15;;
14599;SDS011;7386;45.586;12.854;2023-03-23T11:11:10;37.67;;;29.40;;
14599;SDS011;7386;45.586;12.854;2023-03-23T11:13:39;30.83;;;23.37;;
14599;SDS011;7386;45.586;12.854;2023-03-23T11:16:21;31.05;;;22.02;;
14599;SDS011;7386;45.586;12.854;2023-03-23T11:18:48;38.80;;;29.60;;
14599;SDS011;7386;45.586;12.854;2023-03-23T11:21:17;28.50;;;21.98;;
14599;SDS011;7386;45.586;12.854;2023-03-23T11:23:47;29.90;;;23.77;;
14599;SDS011;7386;45.586;12.854;2023-03-23T11:26:16;36.13;;;28.87;;
14599;SDS011;7386;45.586;12.854;2023-03-23T11:28:45;28.37;;;22.43;;
14599;SDS011;7386;45.586;12.854;2023-03-23T11:31:16;28.03;;;21.33;;
14599;SDS011;7386;45.586;12.854;2023-03-23T11:33:47;35.73;;;28.40;;
14599;SDS011;7386;45.586;12.854;2023-03-23T11:36:16;26.60;;;22.00;;
14599;SDS011;7386;45.586;12.854;2023-03-23T11:38:43;25.35;;;21.02;;
14599;SDS011;7386;45.586;12.854;2023-03-23T11:41:11;35.22;;;27.35;;
14599;SDS011;7386;45.586;12.854;2023-03-23T11:43:40;27.23;;;22.52;;
14599;SDS011;7386;45.586;12.854;2023-03-23T11:46:11;29.70;;;23.90;;
14599;SDS011;7386;45.586;12.854;2023-03-23T11:48:43;38.20;;;30.10;;
14599;SDS011;7386;45.586;12.854;2023-03-23T11:51:13;30.40;;;23.48;;
14599;SDS011;7386;45.586;12.854;2023-03-23T11:53:43;31.83;;;26.05;;
14599;SDS011;7386;45.586;12.854;2023-03-23T11:56:15;38.92;;;30.45;;
14599;SDS011;7386;45.586;12.854;2023-03-23T11:58:45;29.67;;;24.00;;
14599;SDS011;7386;45.586;12.854;2023-03-23T12:01:15;34.00;;;27.57;;
14599;SDS011;7386;45.586;12.854;2023-03-23T12:03:58;37.00;;;30.20;;
14599;SDS011;7386;45.586;12.854;2023-03-23T12:06:30;29.25;;;23.85;;
14599;SDS011;7386;45.586;12.854;2023-03-23T12:09:04;37.45;;;29.30;;
14599;SDS011;7386;45.586;12.854;2023-03-23T12:11:37;35.22;;;27.77;;
14599;SDS011;7386;45.586;12.854;2023-03-23T12:14:09;34.13;;;27.02;;
14599;SDS011;7386;45.586;12.854;2023-03-23T12:16:48;38.83;;;31.93;;
14599;SDS011;7386;45.586;12.854;2023-03-23T12:19:19;29.57;;;23.97;;
14599;SDS011;7386;45.586;12.854;2023-03-23T12:21:50;34.78;;;27.52;;
14599;SDS011;7386;45.586;12.854;2023-03-23T12:24:23;34.47;;;29.13;;
14599;SDS011;7386;45.586;12.854;2023-03-23T12:26:55;27.65;;;22.45;;
14599;SDS011;7386;45.586;12.854;2023-03-23T12:32:25;31.90;;;24.55;;
14599;SDS011;7386;45.586;12.854;2023-03-23T12:35:00;33.20;;;26.25;;
14599;SDS011;7386;45.586;12.854;2023-03-23T12:37:35;36.42;;;28.80;;
14599;SDS011;7386;45.586;12.854;2023-03-23T12:40:08;24.20;;;19.73;;
14599;SDS011;7386;45.586;12.854;2023-03-23T12:42:40;35.38;;;28.83;;
14599;SDS011;7386;45.586;12.854;2023-03-23T12:45:12;27.05;;;22.92;;
14599;SDS011;7386;45.586;12.854;2023-03-23T12:47:45;34.33;;;25.40;;
14599;SDS011;7386;45.586;12.854;2023-03-23T12:50:15;38.63;;;30.63;;
14599;SDS011;7386;45.586;12.854;2023-03-23T12:52:45;26.75;;;22.73;;
14599;SDS011;7386;45.586;12.854;2023-03-23T12:55:16;34.55;;;26.10;;
14599;SDS011;7386;45.586;12.854;2023-03-23T12:57:45;33.35;;;27.75;;
14599;SDS011;7386;45.586;12.854;2023-03-23T13:00:18;22.85;;;19.52;;
14599;SDS011;7386;45.586;12.854;2023-03-23T13:02:48;30.77;;;25.60;;
14599;SDS011;7386;45.586;12.854;2023-03-23T13:05:27;31.17;;;25.95;;
14599;SDS011;7386;45.586;12.854;2023-03-23T13:07:59;27.77;;;21.02;;
14599;SDS011;7386;45.586;12.854;2023-03-23T13:10:28;35.47;;;28.48;;
14599;SDS011;7386;45.586;12.854;2023-03-23T13:12:56;25.67;;;21.75;;
14599;SDS011;7386;45.586;12.854;2023-03-23T13:15:27;17.75;;;15.07;;
14599;SDS011;7386;45.586;12.854;2023-03-23T13:18:00;15.80;;;14.10;;
14599;SDS011;7386;45.586;12.854;2023-03-23T13:20:33;14.88;;;12.48;;
14599;SDS011;7386;45.586;12.854;2023-03-23T13:23:02;22.52;;;18.45;;
14599;SDS011;7386;45.586;12.854;2023-03-23T13:25:39;17.38;;;15.50;;
14599;SDS011;7386;45.586;12.854;2023-03-23T13:28:13;15.77;;;13.07;;
14599;SDS011;7386;45.586;12.854;2023-03-23T13:30:41;14.93;;;12.43;;
14599;SDS011;7386;45.586;12.854;2023-03-23T13:33:20;26.13;;;21.27;;
14599;SDS011;7386;45.586;12.854;2023-03-23T13:35:49;30.27;;;23.13;;
14599;SDS011;7386;45.586;12.854;2023-03-23T13:38:18;21.38;;;18.15;;
14599;SDS011;7386;45.586;12.854;2023-03-23T13:40:46;17.05;;;14.27;;
14599;SDS011;7386;45.586;12.854;2023-03-23T13:43:18;14.80;;;12.85;;
14599;SDS011;7386;45.586;12.854;2023-03-23T13:45:52;23.13;;;19.38;;
14599;SDS011;7386;45.586;12.854;2023-03-23T13:48:22;28.05;;;22.92;;
14599;SDS011;7386;45.586;12.854;2023-03-23T13:50:53;25.95;;;21.10;;
14599;SDS011;7386;45.586;12.854;2023-03-23T13:53:22;19.55;;;16.60;;
14599;SDS011;7386;45.586;12.854;2023-03-23T13:55:51;17.08;;;14.15;;
14599;SDS011;7386;45.586;12.854;2023-03-23T13:58:22;15.80;;;12.93;;
14599;SDS011;7386;45.586;12.854;2023-03-23T14:01:00;15.18;;;13.48;;
14599;SDS011;7386;45.586;12.854;2023-03-23T14:03:32;28.58;;;24.15;;
14599;SDS011;7386;45.586;12.854;2023-03-23T14:06:04;30.90;;;25.00;;
14599;SDS011;7386;45.586;12.854;2023-03-23T14:08:37;24.42;;;18.90;;
14599;SDS011;7386;45.586;12.854;2023-03-23T14:11:09;27.80;;;22.90;;
14599;SDS011;7386;45.586;12.854;2023-03-23T14:13:40;31.40;;;25.02;;
14599;SDS011;7386;45.586;12.854;2023-03-23T14:16:13;21.60;;;18.05;;
14599;SDS011;7386;45.586;12.854;2023-03-23T14:18:42;29.02;;;23.77;;
14599;SDS011;7386;45.586;12.854;2023-03-23T14:21:15;28.10;;;22.80;;
14599;SDS011;7386;45.586;12.854;2023-03-23T14:23:42;23.67;;;17.98;;
14599;SDS011;7386;45.586;12.854;2023-03-23T14:26:10;20.63;;;17.85;;
14599;SDS011;7386;45.586;12.854;2023-03-23T14:28:40;31.58;;;25.40;;
14599;SDS011;7386;45.586;12.854;2023-03-23T14:31:14;26.80;;;22.48;;
14599;SDS011;7386;45.586;12.854;2023-03-23T14:33:42;19.10;;;16.05;;
14599;SDS011;7386;45.586;12.854;2023-03-23T14:36:09;28.13;;;24.02;;
14599;SDS011;7386;45.586;12.854;2023-03-23T14:38:38;29.13;;;23.05;;
14599;SDS011;7386;45.586;12.854;2023-03-23T14:41:05;22.75;;;18.02;;